createdAt,value
2023-01-20T00:01:06.055Z,5.47
2023-01-20T00:03:35.308Z,6.20
2023-01-20T00:06:03.338Z,5.75
2023-01-20T00:08:31.288Z,5.90
2023-01-20T00:10:59.224Z,6.50
2023-01-20T00:13:27.086Z,7.20
2023-01-20T00:15:54.822Z,7.28
2023-01-20T00:18:22.736Z,8.05
2023-01-20T00:20:51.818Z,9.23
2023-01-20T00:23:19.714Z,8.40
2023-01-20T00:25:47.430Z,8.98
2023-01-20T00:28:15.256Z,9.70
2023-01-20T00:30:43.045Z,9.02
2023-01-20T00:33:10.830Z,9.90
2023-01-20T00:35:38.601Z,10.23
2023-01-20T00:38:07.820Z,11.32
2023-01-20T00:40:35.619Z,11.02
2023-01-20T00:43:03.401Z,12.23
2023-01-20T00:45:31.296Z,13.60
2023-01-20T00:47:59.177Z,14.60
2023-01-20T00:50:26.943Z,14.05
2023-01-20T00:52:54.789Z,13.93
2023-01-20T00:55:23.891Z,14.55
2023-01-20T00:57:51.734Z,15.13
2023-01-20T01:00:20.053Z,14.85
2023-01-20T01:02:47.940Z,15.13
2023-01-20T01:05:15.735Z,15.38
2023-01-20T01:07:43.921Z,15.23
2023-01-20T01:10:12.151Z,16.55
2023-01-20T01:12:41.355Z,15.75
2023-01-20T01:15:10.028Z,15.50
2023-01-20T01:17:37.883Z,15.88
2023-01-20T01:20:06.502Z,16.90
2023-01-20T01:22:34.331Z,15.57
2023-01-20T01:25:02.130Z,16.88
2023-01-20T01:27:30.305Z,17.00
2023-01-20T01:29:59.355Z,16.92
2023-01-20T01:32:27.117Z,18.35
2023-01-20T01:34:54.861Z,16.77
2023-01-20T01:37:22.682Z,15.73
2023-01-20T01:39:50.553Z,16.08
2023-01-20T01:42:20.398Z,15.95
2023-01-20T01:45:20.326Z,15.18
2023-01-20T01:47:52.456Z,15.45
2023-01-20T01:50:22.200Z,15.05
2023-01-20T01:52:52.866Z,14.40
2023-01-20T01:55:22.376Z,14.23
2023-01-20T01:57:50.886Z,14.30
2023-01-20T02:00:20.609Z,14.30
2023-01-20T02:02:48.435Z,13.57
2023-01-20T02:05:17.714Z,14.13
2023-01-20T02:07:48.009Z,14.82
2023-01-20T02:10:16.222Z,14.88
2023-01-20T02:12:47.244Z,14.40
2023-01-20T02:15:15.821Z,16.30
2023-01-20T02:17:54.610Z,17.30
2023-01-20T02:20:52.153Z,16.27
2023-01-20T02:23:33.146Z,17.15
2023-01-20T02:26:17.239Z,17.67
2023-01-20T02:28:55.127Z,19.70
2023-01-20T02:31:52.398Z,19.98
2023-01-20T02:34:26.117Z,20.85
2023-01-20T02:36:57.827Z,21.48
2023-01-20T02:39:29.181Z,21.55
2023-01-20T02:42:01.090Z,21.30
2023-01-20T02:44:33.367Z,21.15
2023-01-20T02:47:05.059Z,21.58
2023-01-20T02:49:36.405Z,22.45
2023-01-20T02:52:07.910Z,22.65
2023-01-20T02:54:37.669Z,22.45
2023-01-20T02:57:07.826Z,23.52
2023-01-20T02:59:38.748Z,24.48
2023-01-20T03:02:10.148Z,23.27
2023-01-20T03:04:42.086Z,22.73
2023-01-20T03:07:10.845Z,24.60
2023-01-20T03:09:40.226Z,24.17
2023-01-20T03:12:12.190Z,24.60
2023-01-20T03:14:40.085Z,24.60
2023-01-20T03:17:07.842Z,25.20
2023-01-20T03:19:36.424Z,25.45
2023-01-20T03:22:05.475Z,25.13
2023-01-20T03:24:34.667Z,25.40
2023-01-20T03:27:02.513Z,25.83
2023-01-20T03:29:30.676Z,27.70
2023-01-20T03:32:00.746Z,28.40
2023-01-20T03:34:31.309Z,27.50
2023-01-20T03:36:59.535Z,26.35
2023-01-20T03:39:28.997Z,28.08
2023-01-20T03:42:05.992Z,27.88
2023-01-20T03:44:47.791Z,27.27
2023-01-20T03:47:19.125Z,26.92
2023-01-20T03:49:52.852Z,28.98
2023-01-20T03:52:47.655Z,26.75
2023-01-20T03:55:18.253Z,30.47
2023-01-20T03:57:50.629Z,29.48
2023-01-20T04:00:21.463Z,31.23
2023-01-20T04:02:50.390Z,30.95
2023-01-20T04:05:18.354Z,31.80
2023-01-20T04:07:47.006Z,31.13
2023-01-20T04:10:17.074Z,31.20
2023-01-20T04:12:45.074Z,31.50
2023-01-20T04:15:13.365Z,30.92
2023-01-20T04:17:41.552Z,31.30
2023-01-20T04:20:12.376Z,30.70
2023-01-20T04:22:45.459Z,30.90
2023-01-20T04:25:18.889Z,32.10
2023-01-20T04:27:46.704Z,32.70
2023-01-20T04:30:15.373Z,32.55
2023-01-20T04:32:43.233Z,32.15
2023-01-20T04:35:12.938Z,32.88
2023-01-20T04:37:40.914Z,31.20
2023-01-20T04:40:10.120Z,31.65
2023-01-20T04:42:39.258Z,31.55
2023-01-20T04:45:07.810Z,29.83
2023-01-20T04:47:35.622Z,29.63
2023-01-20T04:50:03.422Z,29.38
2023-01-20T04:52:31.096Z,28.15
2023-01-20T04:54:59.149Z,27.48
2023-01-20T04:57:26.950Z,29.00
2023-01-20T04:59:56.254Z,29.20
2023-01-20T05:02:23.972Z,28.55
2023-01-20T05:04:51.859Z,26.30
2023-01-20T05:07:19.627Z,27.63
2023-01-20T05:09:47.485Z,26.73
2023-01-20T05:12:15.212Z,26.08
2023-01-20T05:14:43.063Z,27.90
2023-01-20T05:17:12.139Z,27.30
2023-01-20T05:19:40.914Z,27.38
2023-01-20T05:22:08.831Z,26.92
2023-01-20T05:24:36.586Z,26.45
2023-01-20T05:27:04.526Z,26.92
2023-01-20T05:29:32.466Z,26.35
2023-01-20T05:32:00.199Z,26.90
2023-01-20T05:34:29.414Z,28.63
2023-01-20T05:36:57.310Z,27.27
2023-01-20T05:39:25.148Z,26.90
2023-01-20T05:41:52.860Z,27.55
2023-01-20T05:44:20.762Z,28.15
2023-01-20T05:47:09.950Z,28.25
2023-01-20T05:49:39.078Z,28.30
2023-01-20T05:52:06.823Z,29.25
2023-01-20T05:54:34.624Z,29.10
2023-01-20T05:57:04.247Z,28.02
2023-01-20T05:59:32.386Z,27.02
2023-01-20T06:02:00.248Z,29.23
2023-01-20T06:04:28.132Z,29.83
2023-01-20T06:06:57.229Z,30.42
2023-01-20T06:09:25.239Z,28.27
2023-01-20T06:11:52.913Z,29.70
2023-01-20T06:14:20.707Z,29.30
2023-01-20T06:16:48.587Z,31.23
2023-01-20T06:19:16.467Z,30.00
2023-01-20T06:21:46.757Z,30.85
2023-01-20T06:24:16.389Z,30.77
2023-01-20T06:26:44.302Z,29.35
2023-01-20T06:29:11.961Z,31.65
2023-01-20T06:31:39.880Z,29.10
2023-01-20T06:34:07.643Z,29.33
2023-01-20T06:36:35.519Z,30.10
2023-01-20T06:39:03.520Z,31.67
2023-01-20T06:41:32.806Z,30.35
2023-01-20T06:44:00.703Z,30.23
2023-01-20T06:46:28.649Z,29.85
2023-01-20T06:49:00.600Z,29.25
2023-01-20T06:51:30.230Z,29.30
2023-01-20T06:53:58.493Z,29.00
2023-01-20T06:56:26.331Z,30.63
2023-01-20T06:58:55.809Z,30.13
2023-01-20T07:01:25.012Z,30.38
2023-01-20T07:03:53.162Z,30.85
2023-01-20T07:06:25.922Z,27.98
2023-01-20T07:08:53.823Z,30.50
2023-01-20T07:11:21.905Z,28.55
2023-01-20T07:13:49.715Z,29.65
2023-01-20T07:16:19.047Z,29.17
2023-01-20T07:18:49.647Z,29.02
2023-01-20T07:21:18.061Z,28.52
2023-01-20T07:23:46.444Z,29.55
2023-01-20T07:26:16.401Z,29.38
2023-01-20T07:28:44.337Z,29.48
2023-01-20T07:31:14.082Z,29.23
2023-01-20T07:33:43.562Z,27.92
2023-01-20T07:36:12.836Z,28.10
2023-01-20T07:38:41.062Z,29.70
2023-01-20T07:41:16.138Z,28.05
2023-01-20T07:43:44.599Z,28.63
2023-01-20T07:46:12.681Z,28.85
2023-01-20T07:48:40.639Z,28.42
2023-01-20T07:51:11.140Z,29.65
2023-01-20T07:53:40.297Z,27.55
2023-01-20T07:56:11.430Z,28.52
2023-01-20T07:58:39.898Z,28.92
2023-01-20T08:01:09.160Z,29.58
2023-01-20T08:03:37.258Z,28.02
2023-01-20T08:06:05.625Z,27.83
2023-01-20T08:08:35.260Z,27.00
2023-01-20T08:11:04.087Z,26.48
2023-01-20T08:13:32.706Z,25.60
2023-01-20T08:16:01.679Z,26.33
2023-01-20T08:18:29.579Z,26.60
2023-01-20T08:20:57.506Z,27.67
2023-01-20T08:23:25.628Z,29.05
2023-01-20T08:26:00.060Z,27.38
2023-01-20T08:28:28.479Z,30.90
2023-01-20T08:30:56.620Z,28.75
2023-01-20T08:33:24.722Z,28.08
2023-01-20T08:35:52.563Z,27.77
2023-01-20T08:38:20.324Z,29.80
2023-01-20T08:40:48.215Z,28.35
2023-01-20T08:43:17.343Z,29.23
2023-01-20T08:45:45.065Z,26.83
2023-01-20T08:48:12.907Z,28.73
2023-01-20T08:50:40.892Z,28.15
2023-01-20T08:53:09.765Z,28.05
2023-01-20T08:55:37.881Z,27.60
2023-01-20T08:58:05.605Z,27.13
2023-01-20T09:00:34.833Z,26.85
2023-01-20T09:03:02.685Z,27.02
2023-01-20T09:05:30.449Z,27.30
2023-01-20T09:07:58.179Z,27.60
2023-01-20T09:10:26.102Z,27.52
2023-01-20T09:12:53.916Z,26.33
2023-01-20T09:15:25.411Z,29.33
2023-01-20T09:17:54.894Z,27.55
2023-01-20T09:20:22.841Z,26.42
2023-01-20T09:22:50.755Z,26.73
2023-01-20T09:25:18.766Z,29.85
2023-01-20T09:27:46.582Z,27.80
2023-01-20T09:30:15.038Z,28.58
2023-01-20T09:32:42.787Z,28.70
2023-01-20T09:35:12.310Z,29.33
2023-01-20T09:37:57.926Z,28.40
2023-01-20T09:41:02.915Z,28.88
2023-01-20T09:46:25.520Z,27.77
2023-01-20T09:49:15.656Z,28.05
2023-01-20T09:52:08.753Z,27.48
2023-01-20T09:54:41.761Z,28.63
2023-01-20T09:57:10.103Z,27.37
2023-01-20T09:59:39.896Z,29.85
2023-01-20T10:02:12.789Z,27.10
2023-01-20T10:04:44.015Z,28.02
2023-01-20T10:07:18.988Z,27.35
2023-01-20T10:09:51.285Z,29.30
2023-01-20T10:12:21.878Z,27.75
2023-01-20T10:14:55.281Z,32.70
2023-01-20T10:17:25.046Z,29.60
2023-01-20T10:19:56.460Z,34.58
2023-01-20T10:22:31.366Z,28.25
2023-01-20T10:25:02.743Z,38.70
2023-01-20T10:27:31.141Z,36.53
2023-01-20T10:30:05.934Z,30.52
2023-01-20T10:32:36.625Z,27.63
2023-01-20T10:35:10.341Z,29.77
2023-01-20T10:37:40.118Z,27.25
2023-01-20T10:40:18.724Z,26.63
2023-01-20T10:42:49.304Z,25.80
2023-01-20T10:45:21.232Z,26.30
2023-01-20T10:47:55.433Z,25.80
2023-01-20T10:50:40.199Z,24.65
2023-01-20T10:53:30.337Z,23.73
2023-01-20T10:56:09.185Z,24.25
2023-01-20T10:58:37.891Z,25.15
2023-01-20T11:01:08.947Z,43.70
2023-01-20T11:03:40.924Z,27.85
2023-01-20T11:06:10.361Z,25.20
2023-01-20T11:08:39.674Z,24.70
2023-01-20T11:11:12.454Z,24.15
2023-01-20T11:13:40.321Z,24.27
2023-01-20T11:16:13.664Z,24.80
2023-01-20T11:18:41.516Z,25.73
2023-01-20T11:21:11.134Z,23.20
2023-01-20T11:23:42.395Z,22.40
2023-01-20T11:26:19.610Z,23.13
2023-01-20T11:28:50.932Z,21.55
2023-01-20T11:31:19.316Z,22.70
2023-01-20T11:33:58.810Z,21.13
2023-01-20T11:36:27.543Z,22.40
2023-01-20T11:38:58.048Z,23.75
2023-01-20T11:41:27.492Z,21.67
2023-01-20T11:43:56.612Z,21.58
2023-01-20T11:46:30.213Z,21.85
2023-01-20T11:49:14.512Z,21.77
2023-01-20T11:54:18.132Z,20.80
2023-01-20T11:56:47.483Z,20.55
2023-01-20T11:59:22.342Z,21.02
2023-01-20T12:01:57.449Z,21.17
2023-01-20T12:04:38.991Z,21.48
2023-01-20T12:07:10.511Z,20.95
2023-01-20T12:09:42.148Z,20.58
2023-01-20T12:12:15.793Z,20.65
2023-01-20T12:14:48.083Z,20.15
2023-01-20T12:17:23.345Z,19.42
2023-01-20T12:20:02.539Z,20.70
2023-01-20T12:22:38.407Z,20.13
2023-01-20T12:25:16.596Z,20.85
2023-01-20T12:27:51.434Z,18.27
2023-01-20T12:30:44.426Z,18.90
2023-01-20T12:33:18.609Z,18.40
2023-01-20T12:36:06.254Z,17.08
2023-01-20T12:38:37.814Z,19.35
2023-01-20T12:41:09.087Z,22.77
2023-01-20T12:43:52.942Z,19.25
2023-01-20T12:46:39.516Z,16.98
2023-01-20T12:49:20.048Z,16.83
2023-01-20T12:51:57.528Z,17.30
2023-01-20T12:54:51.328Z,15.65
2023-01-20T12:57:31.300Z,17.37
2023-01-20T13:00:12.271Z,17.75
2023-01-20T13:02:53.758Z,17.95
2023-01-20T13:05:51.198Z,17.60
2023-01-20T13:08:23.244Z,17.33
2023-01-20T13:11:05.716Z,18.23
2023-01-20T13:13:56.049Z,17.15
2023-01-20T13:16:32.836Z,17.10
2023-01-20T13:19:08.051Z,17.70
2023-01-20T13:21:35.969Z,17.33
2023-01-20T13:24:06.213Z,17.88
2023-01-20T13:26:34.257Z,17.23
2023-01-20T13:29:03.487Z,16.92
2023-01-20T13:31:44.929Z,17.80
2023-01-20T13:34:33.131Z,15.43
2023-01-20T13:37:23.832Z,15.50
2023-01-20T13:39:54.549Z,14.75
2023-01-20T13:42:30.518Z,15.80
2023-01-20T13:45:27.797Z,16.52
2023-01-20T13:48:01.434Z,15.30
2023-01-20T13:50:32.487Z,15.82
2023-01-20T13:53:15.062Z,15.52
2023-01-20T13:55:57.096Z,19.88
2023-01-20T13:58:26.311Z,16.60
2023-01-20T14:00:57.115Z,15.93
2023-01-20T14:03:29.219Z,14.98
2023-01-20T14:05:59.043Z,15.88
2023-01-20T14:08:29.145Z,15.73
2023-01-20T14:11:13.302Z,16.60
2023-01-20T14:13:41.878Z,17.23
2023-01-20T14:16:21.120Z,16.10
2023-01-20T14:18:49.859Z,14.95
2023-01-20T14:21:21.576Z,14.90
2023-01-20T14:23:50.183Z,15.10
2023-01-20T14:26:22.981Z,15.30
2023-01-20T14:28:51.939Z,14.82
2023-01-20T14:31:24.349Z,16.25
2023-01-20T14:33:55.384Z,18.50
2023-01-20T14:36:24.478Z,15.90
2023-01-20T14:38:58.353Z,15.80
2023-01-20T14:41:28.674Z,15.00
2023-01-20T14:43:56.682Z,15.95
2023-01-20T14:46:26.603Z,15.48
2023-01-20T14:48:55.285Z,14.27
2023-01-20T14:51:23.785Z,13.98
2023-01-20T14:54:31.023Z,14.13
2023-01-20T14:56:59.753Z,14.15
2023-01-20T14:59:27.816Z,14.15
2023-01-20T15:02:00.532Z,14.10
2023-01-20T15:04:36.019Z,15.18
2023-01-20T15:07:03.930Z,14.75
2023-01-20T15:09:33.249Z,15.35
2023-01-20T15:12:32.650Z,14.38
2023-01-20T15:15:24.328Z,15.00
2023-01-20T15:18:18.234Z,14.77
2023-01-20T15:20:48.467Z,14.68
2023-01-20T15:23:20.039Z,13.98
2023-01-20T15:25:48.066Z,13.95
2023-01-20T15:28:25.021Z,14.75
2023-01-20T15:30:53.956Z,15.18
2023-01-20T15:33:24.025Z,14.40
2023-01-20T15:35:53.836Z,13.80
2023-01-20T15:38:21.756Z,15.85
2023-01-20T15:40:49.757Z,16.23
2023-01-20T15:43:18.026Z,16.13
2023-01-20T15:45:46.026Z,14.80
2023-01-20T15:48:18.686Z,17.13
2023-01-20T15:50:48.633Z,22.40
2023-01-20T15:53:16.987Z,16.08
2023-01-20T15:55:49.523Z,15.07
2023-01-20T15:58:26.354Z,14.75
2023-01-20T16:00:55.146Z,14.38
2023-01-20T16:03:23.013Z,12.27
2023-01-20T16:05:53.548Z,11.80
2023-01-20T16:08:22.838Z,11.55
2023-01-20T16:10:50.678Z,11.90
2023-01-20T16:13:18.495Z,10.73
2023-01-20T16:15:46.432Z,11.35
2023-01-20T16:18:15.679Z,11.40
2023-01-20T16:20:45.060Z,11.10
2023-01-20T16:23:14.633Z,12.45
2023-01-20T16:25:42.745Z,12.27
2023-01-20T16:28:14.609Z,12.80
2023-01-20T16:30:42.782Z,13.05
2023-01-20T16:33:18.034Z,13.57
2023-01-20T16:35:45.884Z,12.68
2023-01-20T16:38:17.217Z,13.23
2023-01-20T16:40:48.439Z,13.05
2023-01-20T16:43:17.591Z,12.90
2023-01-20T16:45:49.811Z,12.82
2023-01-20T16:48:17.733Z,12.88
2023-01-20T16:50:45.591Z,13.40
2023-01-20T16:53:15.279Z,13.32
2023-01-20T16:55:44.841Z,14.57
2023-01-20T16:58:12.812Z,15.15
2023-01-20T17:00:41.022Z,15.50
2023-01-20T17:03:09.029Z,16.30
2023-01-20T17:05:36.989Z,16.25
2023-01-20T17:08:06.508Z,18.35
2023-01-20T17:10:35.837Z,17.88
2023-01-20T17:13:03.605Z,18.63
2023-01-20T17:15:31.504Z,19.23
2023-01-20T17:18:00.364Z,21.15
2023-01-20T17:20:30.927Z,21.65
2023-01-20T17:22:58.780Z,19.65
2023-01-20T17:25:26.628Z,21.13
2023-01-20T17:27:55.975Z,19.95
2023-01-20T17:30:26.209Z,20.70
2023-01-20T17:32:54.383Z,21.73
2023-01-20T17:35:22.255Z,22.67
2023-01-20T17:37:50.178Z,22.80
2023-01-20T17:40:18.935Z,23.70
2023-01-20T17:42:46.770Z,24.77
2023-01-20T17:45:16.144Z,23.60
2023-01-20T17:47:43.989Z,24.50
2023-01-20T17:50:12.244Z,25.15
2023-01-20T17:52:40.316Z,24.95
2023-01-20T17:55:09.002Z,25.13
2023-01-20T17:57:36.761Z,24.92
2023-01-20T18:00:06.399Z,26.33
2023-01-20T18:02:35.997Z,25.42
2023-01-20T18:05:04.236Z,26.15
2023-01-20T18:07:32.034Z,27.80
2023-01-20T18:09:59.951Z,26.50
2023-01-20T18:12:27.777Z,26.77
2023-01-20T18:14:55.562Z,26.52
2023-01-20T18:17:23.346Z,27.30
2023-01-20T18:19:52.568Z,28.02
2023-01-20T18:22:20.337Z,26.02
2023-01-20T18:24:48.096Z,27.88
2023-01-20T18:27:18.715Z,29.30
2023-01-20T18:29:50.294Z,28.63
2023-01-20T18:32:18.152Z,28.33
2023-01-20T18:34:46.026Z,27.42
2023-01-20T18:37:15.175Z,28.20
2023-01-20T18:39:43.946Z,28.48
2023-01-20T18:42:12.075Z,28.67
2023-01-20T18:44:39.873Z,29.15
2023-01-20T18:47:07.638Z,29.73
2023-01-20T18:49:35.525Z,28.67
2023-01-20T18:52:03.276Z,28.83
2023-01-20T18:54:34.307Z,28.77
2023-01-20T18:57:03.308Z,28.77
2023-01-20T18:59:31.072Z,28.42
2023-01-20T19:01:59.500Z,28.27
2023-01-20T19:04:27.385Z,28.25
2023-01-20T19:06:55.206Z,28.27
2023-01-20T19:09:23.059Z,28.30
2023-01-20T19:11:52.207Z,28.13
2023-01-20T19:14:20.161Z,28.48
2023-01-20T19:16:49.378Z,30.55
2023-01-20T19:19:19.072Z,30.25
2023-01-20T19:21:47.093Z,30.30
2023-01-20T19:24:18.782Z,29.60
2023-01-20T19:26:46.964Z,31.73
2023-01-20T19:29:17.593Z,29.05
2023-01-20T19:31:46.519Z,31.25
2023-01-20T19:34:14.314Z,27.77
2023-01-20T19:36:42.200Z,30.00
2023-01-20T19:39:09.994Z,30.73
2023-01-20T19:41:38.956Z,30.13
2023-01-20T19:44:07.854Z,30.27
2023-01-20T19:46:39.542Z,32.22
2023-01-20T19:49:07.730Z,30.95
2023-01-20T19:51:36.393Z,30.27
2023-01-20T19:54:05.056Z,29.08
2023-01-20T19:56:34.878Z,29.02
2023-01-20T19:59:03.049Z,29.80
2023-01-20T20:01:32.002Z,28.60
2023-01-20T20:04:06.539Z,30.15
2023-01-20T20:06:36.286Z,29.13
2023-01-20T20:09:05.476Z,28.02
2023-01-20T20:11:33.869Z,29.35
2023-01-20T20:14:03.839Z,29.83
2023-01-20T20:16:33.426Z,28.88
2023-01-20T20:19:02.704Z,30.00
2023-01-20T20:21:30.628Z,29.33
2023-01-20T20:24:00.182Z,29.85
2023-01-20T20:26:29.815Z,30.30
2023-01-20T20:28:59.098Z,30.15
2023-01-20T20:31:29.290Z,30.48
2023-01-20T20:33:57.967Z,29.13
2023-01-20T20:36:29.655Z,27.90
2023-01-20T20:38:58.756Z,27.08
2023-01-20T20:41:28.845Z,31.30
2023-01-20T20:43:56.898Z,29.60
2023-01-20T20:46:24.827Z,30.98
2023-01-20T20:48:54.581Z,29.80
2023-01-20T20:51:23.775Z,28.90
2023-01-20T20:53:54.317Z,29.73
2023-01-20T20:56:22.114Z,30.05
2023-01-20T20:59:00.934Z,29.55
2023-01-20T21:01:30.576Z,30.10
2023-01-20T21:04:00.480Z,29.45
2023-01-20T21:06:28.926Z,31.80
2023-01-20T21:08:58.734Z,30.08
2023-01-20T21:11:26.779Z,29.80
2023-01-20T21:13:55.080Z,29.23
2023-01-20T21:16:24.180Z,30.00
2023-01-20T21:18:53.197Z,29.95
2023-01-20T21:21:21.667Z,29.02
2023-01-20T21:23:50.739Z,27.00
2023-01-20T21:26:20.255Z,27.38
2023-01-20T21:28:49.286Z,27.50
2023-01-20T21:31:20.978Z,29.85
2023-01-20T21:33:53.743Z,31.25
2023-01-20T21:36:22.175Z,32.05
2023-01-20T21:38:50.313Z,31.13
2023-01-20T21:41:20.094Z,32.78
2023-01-20T21:44:06.211Z,34.45
2023-01-20T21:46:38.381Z,34.10
2023-01-20T21:49:24.815Z,33.88
2023-01-20T21:52:10.267Z,31.77
2023-01-20T21:54:39.789Z,33.42
2023-01-20T21:57:08.937Z,34.50
2023-01-20T21:59:37.004Z,33.78
2023-01-20T22:02:05.057Z,33.50
2023-01-20T22:04:33.228Z,29.48
2023-01-20T22:07:01.424Z,28.92
2023-01-20T22:09:29.125Z,28.15
2023-01-20T22:11:56.915Z,30.10
2023-01-20T22:14:26.044Z,28.88
2023-01-20T22:16:53.993Z,29.00
2023-01-20T22:19:22.090Z,29.63
2023-01-20T22:21:49.785Z,28.80
2023-01-20T22:24:18.456Z,28.95
2023-01-20T22:26:47.331Z,26.83
2023-01-20T22:29:15.209Z,28.77
2023-01-20T22:31:44.681Z,28.42
2023-01-20T22:34:12.772Z,28.60
2023-01-20T22:36:40.685Z,26.38
2023-01-20T22:39:08.754Z,27.70
2023-01-20T22:41:36.498Z,28.02
2023-01-20T22:44:04.516Z,28.70
2023-01-20T22:46:32.483Z,28.00
2023-01-20T22:49:01.842Z,28.92
2023-01-20T22:51:30.652Z,29.45
2023-01-20T22:53:59.527Z,29.52
2023-01-20T22:56:29.191Z,29.63
2023-01-20T22:58:57.435Z,29.60
2023-01-20T23:01:26.946Z,29.38
2023-01-20T23:03:55.261Z,30.00
2023-01-20T23:06:25.249Z,29.67
2023-01-20T23:08:53.119Z,29.63
2023-01-20T23:11:22.222Z,29.55
2023-01-20T23:13:50.797Z,28.88
2023-01-20T23:16:21.426Z,29.83
2023-01-20T23:18:49.838Z,28.65
2023-01-20T23:21:17.785Z,29.58
2023-01-20T23:23:46.872Z,30.55
2023-01-20T23:26:19.273Z,27.48
2023-01-20T23:28:47.686Z,29.48
2023-01-20T23:31:16.642Z,28.63
2023-01-20T23:33:45.099Z,29.58
2023-01-20T23:36:14.635Z,27.83
2023-01-20T23:38:42.649Z,27.40
2023-01-20T23:41:12.191Z,29.27
2023-01-20T23:43:40.421Z,29.20
2023-01-20T23:46:08.822Z,28.63
2023-01-20T23:48:36.909Z,28.17
2023-01-20T23:51:06.373Z,28.15
2023-01-20T23:53:35.275Z,29.20
2023-01-20T23:56:03.870Z,28.33
2023-01-20T23:58:33.278Z,28.67
